Time;durP1;ratioP1;P1;durP2;ratioP2;P2;SDS_P1;SDS_P2;PMS_P1;PMS_P2;Temp;Humidity;BMP_temperature;BMP_pressure;BME280_temperature;BME280_humidity;BME280_pressure;Samples;Min_cycle;Max_cycle;Signal;HPM_P1;HPM_P2
2022/11/08 00:14:07;;;;;;;6.27;2.40;;;;;;;18.45;57.76;63137.16;16935220;28;20233;-36
2022/11/08 00:22:25;;;;;;;7.57;2.10;;;;;;;18.43;57.95;63129.69;16931969;28;20235;-34
2022/11/08 00:30:43;;;;;;;9.10;2.50;;;;;;;18.41;57.71;63130.03;16836276;28;20363;-37
2022/11/08 00:39:00;;;;;;;4.80;2.30;;;;;;;18.39;57.73;63127.78;16930614;28;20236;-36
2022/11/08 00:47:18;;;;;;;5.00;2.07;;;;;;;18.39;57.81;63125.19;16905101;28;20256;-36
2022/11/08 00:55:35;;;;;;;6.10;2.50;;;;;;;18.38;57.75;63126.66;16928666;28;20234;-36
2022/11/08 01:03:53;;;;;;;6.20;2.57;;;;;;;18.37;57.60;63128.16;16921390;28;20219;-36
2022/11/08 01:12:10;;;;;;;4.40;1.90;;;;;;;18.37;57.78;63128.16;16936498;28;20243;-36
2022/11/08 01:20:28;;;;;;;5.37;2.30;;;;;;;18.41;57.43;63133.22;16909415;28;20232;-36
2022/11/08 01:28:46;;;;;;;4.07;2.03;;;;;;;18.29;57.54;63114.50;16930490;28;20246;-36
2022/11/08 01:37:04;;;;;;;4.23;2.00;;;;;;;18.30;57.80;63120.84;16914663;28;20307;-36
2022/11/08 01:45:51;;;;;;;5.40;2.23;;;;;;;18.30;57.67;63120.84;16926759;28;20216;-36
2022/11/08 01:54:14;;;;;;;5.63;2.50;;;;;;;18.28;57.46;63110.19;16939770;28;20220;-36
2022/11/08 02:02:32;;;;;;;5.27;2.00;;;;;;;18.27;57.71;63111.69;16961003;28;20234;-36
2022/11/08 02:10:53;;;;;;;4.20;1.90;;;;;;;18.26;57.52;63113.19;16912166;28;20387;-35
2022/11/08 02:19:17;;;;;;;4.87;2.13;;;;;;;18.25;57.36;63112.03;16918774;28;20228;-36
2022/11/08 02:27:35;;;;;;;5.73;2.03;;;;;;;18.23;57.62;63112.97;16925141;28;20247;-35
2022/11/08 02:35:56;;;;;;;6.67;2.80;;;;;;;18.22;57.62;63111.84;16919525;28;20232;-35
2022/11/08 02:44:14;;;;;;;6.13;2.13;;;;;;;18.22;57.66;63111.28;16932164;28;20227;-35
2022/11/08 02:52:31;;;;;;;3.63;1.73;;;;;;;18.22;57.37;63113.91;16926889;28;20228;-35
2022/11/08 03:00:49;;;;;;;4.30;2.13;;;;;;;18.21;57.40;63110.16;16935944;28;20235;-34
2022/11/08 03:09:06;;;;;;;4.93;1.83;;;;;;;18.18;57.33;63102.66;16927708;28;20286;-34
2022/11/08 03:17:24;;;;;;;5.77;2.00;;;;;;;18.19;57.51;63106.44;16943688;28;20263;-35
2022/11/08 03:25:41;;;;;;;3.70;1.80;;;;;;;18.18;57.26;63107.91;16956041;28;20212;-34
2022/11/08 03:33:59;;;;;;;5.77;1.70;;;;;;;18.19;57.42;63109.03;16918878;28;20318;-36
2022/11/08 03:42:16;;;;;;;4.73;1.80;;;;;;;18.18;57.26;63105.28;16933207;28;20240;-37
2022/11/08 03:50:34;;;;;;;4.07;1.70;;;;;;;18.14;57.32;63103.41;16930371;28;20225;-36
2022/11/08 03:58:51;;;;;;;5.20;2.00;;;;;;;18.16;57.44;63099.84;16940957;28;20235;-36
2022/11/08 04:07:09;;;;;;;3.80;1.77;;;;;;;18.16;57.28;63103.06;16932109;28;20323;-36
2022/11/08 04:15:27;;;;;;;5.60;1.80;;;;;;;18.14;57.44;63105.47;16947862;28;20210;-36
2022/11/08 04:23:46;;;;;;;3.40;1.50;;;;;;;18.16;57.23;63103.06;16944570;28;20235;-36
2022/11/08 04:32:03;;;;;;;4.33;2.00;;;;;;;18.13;57.19;63099.09;16924974;28;20229;-36
2022/11/08 04:40:21;;;;;;;3.80;1.70;;;;;;;18.13;57.14;63101.72;16928866;28;20220;-35
2022/11/08 04:48:39;;;;;;;3.90;1.60;;;;;;;18.16;57.21;63100.44;16920024;28;20220;-35
2022/11/08 04:56:57;;;;;;;4.30;2.10;;;;;;;18.28;56.88;63116.00;16903382;28;20228;-35
2022/11/08 05:05:14;;;;;;;4.53;1.97;;;;;;;18.39;56.88;63127.78;16923378;28;20207;-36
2022/11/08 05:13:33;;;;;;;4.37;1.80;;;;;;;18.46;57.17;63137.72;16923754;28;20314;-35
2022/11/08 05:30:25;;;;;;;3.10;1.40;;;;;;;18.53;57.05;63143.56;16916186;28;20283;-35
2022/11/08 05:38:43;;;;;;;3.33;1.53;;;;;;;18.59;57.10;63150.31;16899841;28;20403;-35
2022/11/08 05:47:01;;;;;;;6.17;1.97;;;;;;;18.65;57.40;63156.50;16891223;28;20223;-35
2022/11/08 05:55:18;;;;;;;4.50;2.13;;;;;;;18.70;57.45;63159.50;16891147;28;20220;-38
2022/11/08 06:03:37;;;;;;;3.53;1.70;;;;;;;18.74;57.35;63166.63;16911466;28;20229;-35
2022/11/08 06:11:53;;;;;;;10.13;2.70;;;;;;;18.78;57.44;63171.16;16890412;28;20326;-36
2022/11/08 06:20:12;;;;;;;6.30;2.27;;;;;;;18.80;57.18;63170.22;16912367;28;20236;-34
2022/11/08 06:28:30;;;;;;;8.40;3.00;;;;;;;18.87;57.07;63183.31;16922358;28;20227;-35
2022/11/08 06:36:48;;;;;;;35.43;7.83;;;;;;;18.83;54.86;63178.84;16913209;28;20240;-36
2022/11/08 06:45:05;;;;;;;25.17;5.20;;;;;;;18.70;54.88;63158.94;16932229;28;20216;-36
2022/11/08 06:53:24;;;;;;;16.50;5.33;;;;;;;18.67;55.45;63158.75;16913409;28;20243;-36
2022/11/08 07:01:40;;;;;;;16.43;5.67;;;;;;;18.72;56.06;63163.81;16914543;28;20237;-36
2022/11/08 07:09:59;;;;;;;24.80;5.10;;;;;;;18.64;55.62;63158.56;16918640;28;20372;-35
2022/11/08 07:37:46;;;;;;;19.20;4.90;;;;;;;18.55;56.73;63148.44;17518162;22;20700;-34
2022/11/08 07:46:03;;;;;;;21.03;4.10;;;;;;;18.69;57.56;63163.59;17419970;28;20870;-37
2022/11/08 07:54:21;;;;;;;12.43;3.83;;;;;;;18.78;57.59;63173.78;17418353;28;20554;-36
2022/11/08 08:02:38;;;;;;;10.40;3.83;;;;;;;18.86;57.97;63179.59;17423574;28;20238;-36
2022/11/08 08:10:59;;;;;;;14.10;3.90;;;;;;;18.91;58.04;63187.84;17367775;28;20967;-36
2022/11/08 08:19:16;;;;;;;20.50;5.10;;;;;;;18.96;58.28;63188.25;17355007;28;20951;-35
2022/11/08 09:07:36;;;;;;;10.57;3.30;;;;;;;19.13;56.93;63211.47;17461335;22;20693;-24
2022/11/08 09:15:54;;;;;;;16.20;5.00;;;;;;;19.18;57.00;63217.13;17404320;28;20758;-23
2022/11/08 09:24:12;;;;;;;22.43;3.13;;;;;;;19.22;57.00;63227.41;17392842;28;20777;-24
2022/11/08 09:32:29;;;;;;;17.40;3.70;;;;;;;19.26;56.71;63218.28;17409098;28;20227;-23
2022/11/08 09:40:57;;;;;;;9.80;2.83;;;;;;;19.30;56.82;63230.63;17398408;28;20219;-24
2022/11/08 09:49:17;;;;;;;10.83;2.70;;;;;;;19.28;56.95;63225.75;17400825;28;20589;-23
2022/11/08 09:57:46;;;;;;;9.17;2.87;;;;;;;19.31;56.83;63231.75;17403982;28;20223;-23
2022/11/08 10:06:32;;;;;;;12.50;3.07;;;;;;;19.31;56.83;63229.13;17378085;28;20216;-23
2022/11/08 10:15:06;;;;;;;10.60;3.07;;;;;;;19.38;57.21;63236.47;17344523;28;20296;-23
2022/11/08 10:23:32;;;;;;;12.93;3.07;;;;;;;19.35;57.43;63233.66;17346602;28;20683;-24
2022/11/08 10:31:56;;;;;;;13.53;2.73;;;;;;;19.45;57.48;63250.13;17349057;28;20211;-23
2022/11/08 10:40:19;;;;;;;11.20;2.90;;;;;;;19.53;57.27;63256.53;17377548;28;20223;-24
2022/11/08 10:48:39;;;;;;;9.27;3.10;;;;;;;19.62;57.15;63263.50;17376058;28;20300;-24
2022/11/08 10:56:55;;;;;;;10.57;2.93;;;;;;;19.66;57.13;63268.00;17374964;28;20223;-24
2022/11/08 11:05:24;;;;;;;8.33;2.60;;;;;;;19.71;57.16;63273.09;17382177;28;20227;-23
2022/11/08 11:13:41;;;;;;;9.33;2.83;;;;;;;19.63;57.47;63264.06;17370142;28;20223;-23
2022/11/08 11:22:06;;;;;;;9.00;2.23;;;;;;;19.65;56.45;63266.34;17342621;28;20192;-24
2022/11/08 11:30:28;;;;;;;8.27;2.90;;;;;;;19.74;55.89;63271.78;17358486;28;20224;-23
2022/11/08 11:38:52;;;;;;;8.93;1.47;;;;;;;19.05;44.55;63203.06;17349106;28;20253;-23
2022/11/08 11:47:17;;;;;;;20.47;11.53;;;;;;;18.94;41.11;63193.84;17340925;28;20234;-25
2022/11/08 11:56:04;;;;;;;6.07;2.10;;;;;;;18.61;38.84;63155.19;17347203;28;20219;-25
2022/11/08 12:04:51;;;;;;;4.17;1.80;;;;;;;18.89;40.79;63185.59;17309051;28;20220;-23
2022/11/08 12:13:19;;;;;;;3.83;1.50;;;;;;;18.80;40.84;63178.06;17320344;28;20234;-23
2022/11/08 12:21:44;;;;;;;3.40;1.37;;;;;;;19.12;39.57;63212.97;17322302;28;20216;-23
2022/11/08 12:30:08;;;;;;;3.80;1.63;;;;;;;19.32;39.91;63230.28;17350065;28;20227;-23
2022/11/08 12:38:34;;;;;;;7.70;1.10;;;;;;;20.12;39.03;63318.16;17331544;28;20234;-23
2022/11/08 12:47:04;;;;;;;4.97;1.00;;;;;;;20.93;38.68;63407.25;17339192;28;20582;-23
2022/11/08 12:55:25;;;;;;;3.40;1.10;;;;;;;21.33;39.19;63457.66;17360316;28;20231;-25
2022/11/08 13:04:17;;;;;;;4.30;1.40;;;;;;;20.92;40.70;63401.44;17340240;28;20340;-23
2022/11/08 13:12:44;;;;;;;9.13;1.47;;;;;;;20.35;42.88;63341.47;17356948;28;20220;-23
2022/11/08 13:21:36;;;;;;;5.30;1.70;;;;;;;19.98;44.56;63306.13;17340523;28;20216;-23
2022/11/08 13:29:53;;;;;;;8.00;1.57;;;;;;;19.78;45.66;63283.59;17346078;28;20330;-23
2022/11/08 13:38:26;;;;;;;4.10;1.80;;;;;;;19.65;46.48;63266.34;17345421;28;20211;-24
2022/11/08 13:46:48;;;;;;;6.10;1.37;;;;;;;19.58;47.01;63255.78;17361120;28;20212;-24
2022/11/08 13:55:44;;;;;;;3.70;1.30;;;;;;;19.54;47.63;63257.66;17359316;28;20219;-24
2022/11/08 14:04:01;;;;;;;6.93;1.40;;;;;;;19.40;48.80;63241.31;17355661;28;20231;-24
2022/11/08 14:12:30;;;;;;;6.37;1.67;;;;;;;19.38;49.31;63234.41;17371761;28;20219;-24
2022/11/08 14:20:47;;;;;;;6.20;1.67;;;;;;;19.35;49.92;63236.28;17359900;28;20211;-24
2022/11/08 14:29:08;;;;;;;5.10;1.40;;;;;;;19.36;50.18;63236.81;17364405;28;20227;-24
2022/11/08 14:37:28;;;;;;;5.73;1.80;;;;;;;19.39;50.78;63238.16;17363865;28;20235;-24
2022/11/08 14:45:46;;;;;;;3.53;1.40;;;;;;;19.36;50.99;63234.75;17366490;28;20237;-23
2022/11/08 14:54:03;;;;;;;5.17;1.50;;;;;;;19.39;51.32;63234.97;17370106;28;20223;-23
2022/11/08 15:02:21;;;;;;;7.90;1.30;;;;;;;19.40;51.59;63236.63;17373113;28;20199;-25
2022/11/08 15:10:38;;;;;;;9.93;1.57;;;;;;;19.38;51.90;63237.03;17372687;28;20232;-23
2022/11/08 15:19:18;;;;;;;3.67;1.53;;;;;;;19.37;52.21;63235.31;17357211;28;20216;-23
2022/11/08 15:27:35;;;;;;;3.80;1.30;;;;;;;19.36;52.45;63236.81;17370859;28;20256;-26
2022/11/08 15:35:53;;;;;;;5.37;1.53;;;;;;;19.35;52.66;63233.66;17348538;28;20321;-23
2022/11/08 15:44:17;;;;;;;7.13;1.60;;;;;;;19.41;52.64;63243.03;17362343;28;20212;-25
2022/11/08 15:52:36;;;;;;;7.83;1.73;;;;;;;19.42;52.82;63243.59;17339412;28;20226;-23
2022/11/08 16:00:53;;;;;;;5.93;1.37;;;;;;;19.39;53.04;63238.16;17354579;28;20281;-25
2022/11/08 16:09:11;;;;;;;7.23;1.60;;;;;;;19.40;53.36;63243.94;17343714;28;20227;-26
2022/11/08 16:17:28;;;;;;;8.80;1.97;;;;;;;19.47;53.23;63241.34;17360911;28;20234;-25
2022/11/08 16:25:47;;;;;;;7.60;1.90;;;;;;;19.51;53.18;63249.03;17350519;28;20247;-26
2022/11/08 16:34:04;;;;;;;6.93;2.07;;;;;;;19.53;54.38;63253.91;17360205;28;20238;-25
2022/11/08 16:42:23;;;;;;;8.97;1.80;;;;;;;19.53;53.75;63255.97;17360285;28;20200;-25
2022/11/08 16:50:40;;;;;;;6.87;1.80;;;;;;;19.51;53.48;63249.03;17333089;28;20227;-25
2022/11/08 16:58:58;;;;;;;7.20;1.40;;;;;;;19.52;53.53;63252.22;17342181;28;20235;-25
2022/11/08 17:07:15;;;;;;;5.83;1.40;;;;;;;19.50;53.48;63253.16;17344307;28;20235;-26
2022/11/08 17:15:33;;;;;;;3.90;1.60;;;;;;;19.48;53.56;63245.66;17361046;28;20235;-25
2022/11/08 17:23:50;;;;;;;6.13;1.50;;;;;;;19.49;53.39;63254.66;17367674;28;20211;-25
2022/11/08 17:32:08;;;;;;;5.20;1.33;;;;;;;19.47;53.63;63244.53;17378068;28;20207;-25
2022/11/08 17:40:25;;;;;;;5.77;1.57;;;;;;;19.47;53.62;63251.84;17375277;28;20223;-26
2022/11/08 17:48:43;;;;;;;6.50;1.77;;;;;;;19.48;53.62;63250.34;17353637;28;20217;-26
2022/11/08 17:57:00;;;;;;;3.60;1.50;;;;;;;19.51;53.33;63253.72;17373493;28;20221;-25
2022/11/08 18:05:18;;;;;;;4.80;1.60;;;;;;;19.59;53.64;63256.94;17359728;28;20235;-25
2022/11/08 18:13:35;;;;;;;4.27;1.50;;;;;;;19.63;53.75;63266.69;17361194;28;20212;-26
2022/11/08 18:21:54;;;;;;;5.27;1.80;;;;;;;19.65;53.59;63266.91;17366321;28;20197;-26
2022/11/08 18:30:12;;;;;;;5.40;1.67;;;;;;;19.68;53.44;63272.34;17378967;28;20222;-26
2022/11/08 18:38:30;;;;;;;3.07;1.13;;;;;;;19.68;53.45;63270.28;17384757;28;20311;-25
2022/11/08 18:46:47;;;;;;;6.60;1.70;;;;;;;19.67;53.63;63269.16;17365866;28;20231;-24
2022/11/08 18:55:07;;;;;;;9.63;2.07;;;;;;;19.64;54.11;63263.13;17364195;28;20243;-24
2022/11/08 19:03:24;;;;;;;6.97;1.70;;;;;;;19.63;53.95;63269.84;17376828;28;20295;-24
2022/11/08 19:11:43;;;;;;;3.60;1.40;;;;;;;19.63;53.89;63266.69;17375628;28;20280;-24
2022/11/08 19:19:59;;;;;;;4.43;2.03;;;;;;;17.12;45.19;62990.94;17356650;28;20231;-24
2022/11/08 19:28:18;;;;;;;9.83;2.10;;;;;;;18.52;45.64;63142.44;17355423;28;20225;-24
2022/11/08 19:36:39;;;;;;;8.37;2.37;;;;;;;19.00;47.45;63197.41;17345276;28;20260;-25
2022/11/08 19:44:57;;;;;;;5.10;2.30;;;;;;;19.22;48.75;63221.63;17304747;28;20221;-25
2022/11/08 19:53:14;;;;;;;11.60;2.70;;;;;;;19.43;49.57;63244.69;17308451;28;20311;-26
2022/11/08 20:01:35;;;;;;;29.53;5.33;;;;;;;19.51;50.57;63253.72;17308381;28;20232;-24
2022/11/08 20:09:53;;;;;;;23.57;4.83;;;;;;;19.53;50.97;63253.91;17311321;28;20274;-25
2022/11/08 20:18:11;;;;;;;19.17;5.13;;;;;;;19.60;51.15;63263.28;17293643;28;20235;-24
2022/11/08 20:26:28;;;;;;;15.40;4.40;;;;;;;19.64;51.29;63267.78;17298762;28;20224;-25
2022/11/08 20:34:47;;;;;;;27.37;5.33;;;;;;;19.64;51.59;63270.41;17340301;28;20216;-25
2022/11/08 20:43:04;;;;;;;17.53;4.60;;;;;;;19.63;51.65;63264.06;17354782;28;20204;-25
2022/11/08 20:51:22;;;;;;;13.93;4.13;;;;;;;19.64;51.62;63268.38;17450912;22;20273;-25
2022/11/08 20:59:39;;;;;;;11.27;4.27;;;;;;;19.63;51.75;63261.44;17378184;28;20207;-27
2022/11/08 21:07:57;;;;;;;12.90;4.10;;;;;;;19.63;51.60;63266.69;17225294;23;20313;-23
2022/11/08 21:16:15;;;;;;;13.07;4.40;;;;;;;19.62;51.68;63265.56;17151309;28;20232;-22
2022/11/08 21:24:33;;;;;;;13.00;4.30;;;;;;;19.61;51.95;63264.41;17170291;28;20222;-22
2022/11/08 21:32:50;;;;;;;11.87;4.80;;;;;;;19.62;51.65;63260.31;17163552;28;20222;-22
2022/11/08 21:41:10;;;;;;;13.47;4.20;;;;;;;19.64;51.74;63268.38;17137448;28;20215;-25
2022/11/08 21:49:26;;;;;;;10.40;4.23;;;;;;;19.66;51.90;63262.22;17179899;28;20228;-22
2022/11/08 21:57:45;;;;;;;10.67;4.00;;;;;;;19.66;51.91;63267.44;17150490;28;20233;-25
2022/11/08 22:06:02;;;;;;;11.73;4.27;;;;;;;19.65;51.90;63263.72;17142500;28;20241;-25
2022/11/08 22:14:20;;;;;;;14.43;4.23;;;;;;;19.65;51.93;63268.97;17171313;28;20372;-25
2022/11/08 22:22:37;;;;;;;16.67;4.60;;;;;;;19.64;52.13;63267.78;17135060;28;20219;-23
2022/11/08 22:30:55;;;;;;;10.30;4.20;;;;;;;19.63;52.05;63266.69;17133453;28;20202;-22
2022/11/08 22:39:13;;;;;;;9.80;3.90;;;;;;;19.62;51.87;63260.31;17142174;28;20227;-25
2022/11/08 22:47:31;;;;;;;17.33;4.80;;;;;;;19.60;51.98;63263.84;17163493;28;20234;-25
2022/11/08 22:55:47;;;;;;;16.93;5.00;;;;;;;19.60;52.00;63260.69;17141257;28;20264;-25
2022/11/08 23:04:09;;;;;;;11.07;4.17;;;;;;;19.59;52.07;63256.94;17122962;28;20221;-23
2022/11/08 23:38:12;;;;;;;8.33;4.00;;;;;;;19.55;52.15;63258.78;17143828;28;20313;-25
2022/11/08 23:46:28;;;;;;;11.73;4.20;;;;;;;19.52;51.97;63252.78;17168109;28;20229;-25
2022/11/08 23:54:47;;;;;;;11.07;4.17;;;;;;;19.51;51.94;63256.91;17174721;28;20234;-25
